Terminal Aerodrome Forecast
Issued by NWS

Home | Current Version | Previous Version | Text Only | Print | Product List | Glossary On
Versions: 1 2 3 4 5 6 7 8 9 10 11 12 13 14 15 16 17 18 19 20 21 22 23 24 25 26 27 28 29 30 31 32 33 34 35 36 37 38
000
FTUS44 KFWD 230520
TAFFTW
TAF
KFTW 230520Z 2306/2406 08008KT P6SM -RA OVC018
     FM230800 11007KT 4SM -RA BR OVC008
     FM231400 15014KT P6SM OVC015
     FM232000 16016KT P6SM VCSH OVC025
      TEMPO 2321/2324 3SM -TSRA BR OVC012CB
     FM240400 13010KT 2SM +RA BR OVC008=

USA.gov is the U.S. government's official web portal to all federal, state and local government web resources and services.